Time;durP1;ratioP1;P1;durP2;ratioP2;P2;SDS_P1;SDS_P2;PMS_P1;PMS_P2;Temp;Humidity;BMP_temperature;BMP_pressure;BME280_temperature;BME280_humidity;BME280_pressure;Samples;Min_cycle;Max_cycle;Signal;HPM_P1;HPM_P2
2023/08/31 00:00:09;;;;;;;2.20;1.33;;;;;;;12.95;87.98;92022.47;5015472;28;20046;-79
2023/08/31 00:02:35;;;;;;;2.58;1.08;;;;;;;12.92;88.00;92030.97;5015217;28;20380;-79
2023/08/31 00:05:01;;;;;;;2.25;1.20;;;;;;;12.93;88.54;92031.75;5016439;28;20041;-78
2023/08/31 00:07:26;;;;;;;3.38;1.38;;;;;;;12.88;88.36;92036.06;5016214;28;20081;-79
2023/08/31 00:09:53;;;;;;;2.25;1.15;;;;;;;12.82;89.02;92033.91;5010134;28;20078;-78
2023/08/31 00:12:19;;;;;;;3.90;1.50;;;;;;;12.79;88.94;92037.16;5015129;28;20029;-79
2023/08/31 00:14:44;;;;;;;3.30;1.15;;;;;;;12.73;88.53;92035.78;5016776;28;20038;-79
2023/08/31 00:17:10;;;;;;;2.05;1.20;;;;;;;12.71;88.31;92036.84;4998856;28;20502;-78
2023/08/31 00:19:36;;;;;;;2.42;1.30;;;;;;;12.70;88.64;92039.81;5016606;28;20069;-79
2023/08/31 00:22:01;;;;;;;3.88;1.40;;;;;;;12.67;89.88;92038.53;5015897;28;20026;-79
2023/08/31 00:24:31;;;;;;;2.47;1.48;;;;;;;12.65;90.42;92042.56;5014142;28;20050;-79
2023/08/31 00:26:57;;;;;;;2.30;1.33;;;;;;;12.63;90.41;92040.25;5017150;28;20045;-79
2023/08/31 00:29:25;;;;;;;2.60;1.30;;;;;;;12.58;89.77;92037.00;4999090;28;20025;-78
2023/08/31 00:31:53;;;;;;;2.55;1.38;;;;;;;12.56;90.73;92039.94;4983569;28;20076;-78
2023/08/31 00:34:19;;;;;;;2.65;1.42;;;;;;;12.53;90.12;92035.31;4994214;28;20038;-78
2023/08/31 00:36:45;;;;;;;3.15;1.30;;;;;;;12.52;89.87;92041.66;5006384;28;20026;-78
2023/08/31 00:39:10;;;;;;;2.25;1.40;;;;;;;12.50;90.67;92046.44;4998596;28;20045;-79
2023/08/31 00:41:38;;;;;;;2.60;1.30;;;;;;;12.49;90.44;92044.88;4998970;28;20328;-78
2023/08/31 00:44:04;;;;;;;2.15;1.30;;;;;;;12.44;90.22;92045.78;5015707;28;20056;-78
2023/08/31 00:46:31;;;;;;;2.63;1.30;;;;;;;12.42;88.83;92044.56;5000920;28;20399;-78
2023/08/31 00:48:58;;;;;;;3.00;1.50;;;;;;;12.38;89.16;92043.63;5001518;28;20100;-78
2023/08/31 00:51:24;;;;;;;3.22;1.40;;;;;;;12.35;89.68;92054.75;5020741;28;20075;-78
2023/08/31 00:53:53;;;;;;;3.08;1.65;;;;;;;12.33;89.96;92051.66;5001363;28;20092;-78
2023/08/31 00:56:19;;;;;;;1.95;1.20;;;;;;;12.31;90.51;92056.44;5002753;28;20093;-79
2023/08/31 00:58:47;;;;;;;2.60;1.38;;;;;;;12.27;90.05;92054.44;5002615;28;20029;-79
2023/08/31 01:01:27;;;;;;;3.10;1.40;;;;;;;12.25;89.54;92056.59;5015728;28;20033;-79
2023/08/31 01:03:58;;;;;;;3.10;1.50;;;;;;;12.26;89.01;92058.13;5018853;28;20064;-78
2023/08/31 01:06:41;;;;;;;2.72;1.48;;;;;;;12.26;88.95;92058.13;5018466;28;20041;-78
2023/08/31 01:09:35;;;;;;;2.42;1.40;;;;;;;12.26;89.31;92070.47;5018237;28;20044;-78
2023/08/31 01:12:09;;;;;;;4.75;1.85;;;;;;;12.27;88.70;92066.75;5018330;28;20099;-78
2023/08/31 01:14:47;;;;;;;2.33;1.50;;;;;;;12.29;88.75;92061.97;5018332;28;20034;-77
2023/08/31 01:17:15;;;;;;;3.22;1.60;;;;;;;12.34;86.43;92059.22;5018436;28;20057;-78
2023/08/31 01:19:53;;;;;;;3.13;1.77;;;;;;;12.44;83.16;92066.03;5019744;28;20544;-78
2023/08/31 01:22:52;;;;;;;3.40;1.70;;;;;;;12.54;80.45;92065.75;5001074;28;20042;-79
2023/08/31 01:25:18;;;;;;;2.95;1.52;;;;;;;12.71;79.89;92065.72;5010423;28;20111;-78
2023/08/31 01:27:43;;;;;;;2.78;1.52;;;;;;;12.76;80.40;92069.28;5001544;28;20053;-78
2023/08/31 01:30:09;;;;;;;3.70;1.75;;;;;;;12.80;80.39;92065.72;5000241;28;20042;-78
2023/08/31 01:32:36;;;;;;;4.60;1.83;;;;;;;12.81;79.76;92075.19;5019401;28;20055;-79
2023/08/31 01:35:05;;;;;;;3.60;1.73;;;;;;;12.82;79.26;92073.31;5018257;28;20046;-79
2023/08/31 01:37:59;;;;;;;3.20;1.70;;;;;;;12.83;80.12;92074.84;5017714;28;20034;-78
2023/08/31 01:40:36;;;;;;;3.45;1.80;;;;;;;12.86;79.42;92076.88;4998218;28;20049;-78
2023/08/31 01:43:06;;;;;;;3.72;1.77;;;;;;;12.85;79.88;92077.94;5001170;28;20044;-78
2023/08/31 01:45:33;;;;;;;3.30;1.63;;;;;;;12.87;79.18;92078.41;4984750;28;20037;-79
2023/08/31 01:47:59;;;;;;;4.30;1.90;;;;;;;12.91;77.46;92081.97;5018205;28;20311;-78
2023/08/31 01:50:25;;;;;;;5.93;1.88;;;;;;;13.07;76.45;92077.78;5001278;28;20532;-78
2023/08/31 01:52:53;;;;;;;4.10;1.70;;;;;;;13.06;76.45;92081.50;5000678;28;20030;-79
2023/08/31 01:55:19;;;;;;;5.40;1.80;;;;;;;13.11;73.75;92083.97;4999344;28;20046;-78
2023/08/31 01:57:44;;;;;;;3.83;1.70;;;;;;;13.27;70.85;92072.97;5000496;28;20080;-78
2023/08/31 02:00:17;;;;;;;3.60;1.65;;;;;;;13.36;70.71;92079.00;4985060;28;20061;-78
2023/08/31 02:02:46;;;;;;;3.88;1.73;;;;;;;13.42;70.50;92080.38;4984330;28;20515;-78
2023/08/31 02:05:13;;;;;;;2.97;1.50;;;;;;;13.46;69.76;92080.53;5000453;28;20024;-78
2023/08/31 02:07:40;;;;;;;3.47;1.70;;;;;;;13.52;69.06;92079.28;5000923;28;20073;-79
2023/08/31 02:10:06;;;;;;;3.25;1.70;;;;;;;13.53;70.80;92078.97;5017872;28;20057;-78
2023/08/31 02:12:32;;;;;;;4.47;1.60;;;;;;;13.67;69.52;92085.91;5018243;28;20034;-78
2023/08/31 02:14:58;;;;;;;4.40;1.75;;;;;;;13.68;68.89;92084.81;4999151;28;20033;-79
2023/08/31 02:17:25;;;;;;;3.30;1.80;;;;;;;13.66;68.49;92089.59;5000040;28;20038;-78
2023/08/31 02:19:51;;;;;;;3.65;1.80;;;;;;;13.64;67.96;92091.78;4999740;28;20049;-78
2023/08/31 02:22:17;;;;;;;2.80;1.45;;;;;;;13.56;76.35;92095.22;5015027;28;20038;-78
2023/08/31 02:24:42;;;;;;;3.17;1.60;;;;;;;13.50;76.08;92099.84;5017351;28;20037;-78
2023/08/31 02:27:08;;;;;;;3.05;1.60;;;;;;;13.45;75.50;92090.28;5014872;28;20097;-78
2023/08/31 02:29:33;;;;;;;3.63;1.60;;;;;;;13.37;76.00;92100.81;5000499;28;20037;-79
2023/08/31 02:31:59;;;;;;;3.50;1.55;;;;;;;13.30;75.96;92102.03;5009644;28;20041;-78
2023/08/31 02:34:25;;;;;;;3.05;1.60;;;;;;;13.23;80.05;92099.09;4998152;28;20031;-79
2023/08/31 02:36:51;;;;;;;3.42;1.65;;;;;;;13.16;79.84;92098.03;4997761;28;20407;-79
2023/08/31 02:39:16;;;;;;;3.15;1.60;;;;;;;13.05;79.90;92102.81;4980427;28;20034;-78
2023/08/31 02:41:42;;;;;;;3.97;1.67;;;;;;;12.95;82.30;92103.13;4998644;28;20042;-78
2023/08/31 02:44:07;;;;;;;3.60;1.80;;;;;;;12.89;82.20;92105.13;5005475;28;20029;-78
2023/08/31 02:46:33;;;;;;;3.97;1.80;;;;;;;12.84;81.90;92097.41;4999358;28;20053;-78
2023/08/31 02:48:58;;;;;;;3.88;1.70;;;;;;;12.81;81.88;92103.28;4999310;28;20076;-78
2023/08/31 02:51:24;;;;;;;3.67;1.67;;;;;;;12.76;81.06;92090.31;4998515;28;20119;-78
2023/08/31 02:53:50;;;;;;;6.07;1.90;;;;;;;12.84;75.40;92097.41;5016937;28;20050;-78
2023/08/31 02:56:15;;;;;;;3.35;1.80;;;;;;;12.98;75.23;92099.88;5016653;28;20038;-78
2023/08/31 02:58:41;;;;;;;3.00;1.55;;;;;;;12.99;75.54;92104.03;4999214;28;20064;-78
2023/08/31 03:01:13;;;;;;;3.50;1.60;;;;;;;12.96;75.90;92102.06;5011875;28;20114;-79
2023/08/31 03:03:45;;;;;;;3.40;1.63;;;;;;;12.93;76.43;92100.81;4985295;28;20034;-79
2023/08/31 03:06:11;;;;;;;4.13;2.00;;;;;;;12.91;78.17;92097.72;5015976;28;20116;-78
2023/08/31 03:08:37;;;;;;;4.72;1.90;;;;;;;12.85;78.41;92106.84;4998755;28;20030;-78
2023/08/31 03:11:03;;;;;;;3.30;1.60;;;;;;;12.75;80.10;92099.28;4997986;28;20047;-77
2023/08/31 03:13:29;;;;;;;3.50;1.70;;;;;;;12.68;80.19;92103.13;4998632;28;20113;-78
2023/08/31 03:15:56;;;;;;;4.35;1.90;;;;;;;12.65;78.42;92101.13;4977011;28;20034;-78
2023/08/31 03:18:23;;;;;;;3.42;1.60;;;;;;;12.66;78.93;92102.66;4995857;28;20025;-78
2023/08/31 03:20:49;;;;;;;3.60;1.80;;;;;;;12.63;80.54;92108.53;4998444;28;20108;-78
2023/08/31 03:23:15;;;;;;;3.58;1.70;;;;;;;12.60;82.47;92109.13;4998703;28;20510;-78
2023/08/31 03:25:41;;;;;;;4.25;1.77;;;;;;;12.56;81.81;92108.19;4979642;28;20031;-79
2023/08/31 03:28:07;;;;;;;3.67;1.75;;;;;;;12.55;80.76;92105.88;4996321;28;20084;-79
2023/08/31 03:30:33;;;;;;;3.50;1.80;;;;;;;12.52;81.72;92112.53;4998342;28;20491;-78
2023/08/31 03:32:58;;;;;;;3.72;1.80;;;;;;;12.47;81.67;92105.56;4998641;28;20472;-78
2023/08/31 03:35:26;;;;;;;3.60;1.77;;;;;;;12.50;80.00;92114.69;4997212;28;20410;-79
2023/08/31 03:37:53;;;;;;;5.88;1.70;;;;;;;12.51;78.09;92113.59;4997339;28;20037;-79
2023/08/31 03:40:19;;;;;;;3.53;1.77;;;;;;;12.56;76.07;92112.69;4981214;28;20045;-79
2023/08/31 03:42:45;;;;;;;3.80;2.00;;;;;;;12.69;72.50;92111.78;4997724;28;20701;-78
2023/08/31 03:45:11;;;;;;;3.60;1.70;;;;;;;12.78;72.42;92109.16;4999546;28;20574;-79
2023/08/31 03:47:38;;;;;;;3.80;2.10;;;;;;;12.95;69.70;92114.41;5000420;28;20136;-78
2023/08/31 03:50:04;;;;;;;3.17;1.67;;;;;;;13.02;70.87;92122.59;5001671;28;20065;-79
2023/08/31 03:52:30;;;;;;;3.55;1.80;;;;;;;13.07;70.62;92119.81;4980462;28;20077;-78
2023/08/31 03:54:56;;;;;;;4.20;2.10;;;;;;;13.15;71.40;92117.50;4979360;28;20057;-78
2023/08/31 03:57:22;;;;;;;3.75;1.70;;;;;;;13.07;72.23;92121.69;4991677;28;20028;-79
2023/08/31 03:59:49;;;;;;;3.60;1.83;;;;;;;13.16;69.73;92122.44;5001210;28;20065;-78
2023/08/31 04:02:14;;;;;;;3.63;1.90;;;;;;;13.20;72.34;92130.50;4998909;28;20084;-78
2023/08/31 04:04:40;;;;;;;4.32;2.20;;;;;;;13.18;74.02;92132.66;4983426;28;20052;-79
2023/08/31 04:07:06;;;;;;;3.50;1.80;;;;;;;13.11;74.60;92133.13;4997534;28;20033;-78
2023/08/31 04:09:32;;;;;;;4.97;2.10;;;;;;;13.05;75.40;92135.13;5007722;28;20052;-78
2023/08/31 04:11:58;;;;;;;3.15;1.77;;;;;;;13.00;76.76;92129.25;5015723;28;20025;-78
2023/08/31 04:14:27;;;;;;;4.97;1.80;;;;;;;12.91;75.60;92132.63;4998840;28;20042;-78
2023/08/31 04:16:54;;;;;;;3.47;1.80;;;;;;;12.88;73.63;92140.38;5015074;28;20025;-78
2023/08/31 04:19:19;;;;;;;3.60;1.80;;;;;;;12.87;72.40;92134.34;4996800;28;20073;-78
2023/08/31 04:21:45;;;;;;;4.03;1.80;;;;;;;12.94;72.10;92136.50;5017210;28;20406;-80
2023/08/31 04:24:10;;;;;;;4.07;2.10;;;;;;;12.98;69.97;92142.69;5018800;28;20407;-84
2023/08/31 04:26:36;;;;;;;5.15;1.98;;;;;;;13.01;70.23;92147.31;4998215;28;20042;-80
2023/08/31 04:29:05;;;;;;;4.05;2.00;;;;;;;13.09;69.09;92149.19;5016904;28;20136;-80
2023/08/31 04:31:32;;;;;;;3.90;2.00;;;;;;;13.19;68.22;92150.72;5016588;28;20033;-81
2023/08/31 04:33:57;;;;;;;3.80;2.00;;;;;;;13.21;68.07;92148.56;4999596;28;20464;-82
2023/08/31 04:36:23;;;;;;;5.25;2.00;;;;;;;13.25;68.01;92159.25;4995938;28;20061;-81
2023/08/31 04:38:49;;;;;;;4.70;2.13;;;;;;;13.25;68.40;92153.97;5016054;28;20033;-82
2023/08/31 04:41:15;;;;;;;4.55;2.00;;;;;;;13.27;68.63;92159.69;5014186;28;20072;-80
2023/08/31 04:43:41;;;;;;;4.25;1.92;;;;;;;13.29;68.45;92162.81;5011158;28;20026;-82
2023/08/31 04:46:06;;;;;;;3.78;2.17;;;;;;;13.31;68.49;92168.56;4994957;28;20075;-81
2023/08/31 04:48:32;;;;;;;4.00;1.98;;;;;;;13.33;68.54;92166.38;5017603;28;20046;-83
2023/08/31 04:50:59;;;;;;;3.85;1.95;;;;;;;13.34;68.39;92167.91;5016984;28;20037;-82
2023/08/31 04:53:25;;;;;;;4.88;2.10;;;;;;;13.33;68.92;92169.00;5010920;28;20042;-83
2023/08/31 04:55:51;;;;;;;7.15;2.33;;;;;;;13.33;69.25;92169.00;5012022;28;20037;-82
2023/08/31 04:58:16;;;;;;;4.47;1.90;;;;;;;13.31;71.21;92173.81;5008872;28;20033;-82
2023/08/31 05:00:44;;;;;;;4.25;2.25;;;;;;;13.27;71.66;92175.47;4994051;28;20026;-82
2023/08/31 05:03:10;;;;;;;5.30;2.10;;;;;;;13.22;73.58;92181.66;5010479;28;20130;-81
2023/08/31 05:05:35;;;;;;;4.38;2.00;;;;;;;13.16;75.78;92180.25;5011745;28;20074;-81
2023/08/31 05:08:02;;;;;;;3.65;1.92;;;;;;;13.12;76.13;92185.34;5000586;28;20088;-81
2023/08/31 05:10:28;;;;;;;4.97;2.40;;;;;;;13.10;77.82;92190.16;5018489;28;20454;-81
2023/08/31 05:12:53;;;;;;;6.20;2.00;;;;;;;13.14;76.49;92195.56;5019175;28;20038;-81
2023/08/31 05:15:19;;;;;;;3.90;1.88;;;;;;;13.08;77.67;92202.03;5018591;28;20026;-82
2023/08/31 05:17:45;;;;;;;3.42;1.70;;;;;;;13.03;78.63;92200.34;5017392;28;20042;-84
2023/08/31 05:20:10;;;;;;;4.85;1.88;;;;;;;13.00;79.30;92206.22;5001072;28;20037;-83
2023/08/31 05:22:36;;;;;;;4.00;1.80;;;;;;;12.97;79.90;92206.84;5020617;28;20053;-82
2023/08/31 05:25:02;;;;;;;3.58;1.80;;;;;;;12.97;80.78;92209.47;5019796;28;20034;-83
2023/08/31 05:27:27;;;;;;;3.95;1.90;;;;;;;13.00;81.98;92208.84;5018631;28;20446;-81
2023/08/31 05:29:53;;;;;;;9.75;1.98;;;;;;;12.98;82.19;92216.25;5019182;28;20036;-82
2023/08/31 05:32:18;;;;;;;8.98;2.20;;;;;;;12.98;84.24;92223.38;4999608;28;20042;-84
2023/08/31 05:34:44;;;;;;;7.78;2.60;;;;;;;13.00;83.02;92221.97;4999260;28;20419;-83
2023/08/31 05:37:09;;;;;;;4.40;1.98;;;;;;;13.04;83.52;92225.53;4999239;28;20033;-83
2023/08/31 05:39:35;;;;;;;3.95;1.80;;;;;;;13.10;82.30;92226.94;4999350;28;20040;-82
2023/08/31 05:42:01;;;;;;;4.15;2.10;;;;;;;13.19;80.59;92232.19;5010233;28;20507;-83
2023/08/31 05:44:26;;;;;;;4.43;1.85;;;;;;;13.26;79.43;92231.75;5017845;28;20026;-83
2023/08/31 05:46:52;;;;;;;26.23;4.50;;;;;;;13.33;79.35;92234.72;4999788;28;20100;-83
2023/08/31 05:49:17;;;;;;;7.57;2.22;;;;;;;13.42;79.91;92240.78;4996590;28;20122;-83
2023/08/31 05:51:44;;;;;;;3.67;2.03;;;;;;;13.49;79.29;92238.44;5013810;28;20057;-83
2023/08/31 05:54:12;;;;;;;4.85;2.13;;;;;;;13.56;79.32;92237.22;4997620;28;20037;-84
2023/08/31 05:56:42;;;;;;;3.72;1.90;;;;;;;13.63;80.19;92237.50;5018308;28;20107;-83
2023/08/31 05:59:09;;;;;;;9.18;2.13;;;;;;;13.71;79.82;92236.72;4999819;28;20034;-84
2023/08/31 06:01:38;;;;;;;4.38;2.10;;;;;;;13.79;79.56;92241.22;5014155;28;20586;-82
2023/08/31 06:04:03;;;;;;;5.47;2.40;;;;;;;13.86;80.26;92241.50;4980815;28;20030;-83
2023/08/31 06:06:29;;;;;;;6.18;2.20;;;;;;;14.01;80.00;92253.41;4997591;28;20045;-83
2023/08/31 06:08:56;;;;;;;4.68;2.25;;;;;;;14.11;79.54;92252.31;5016596;28;20034;-82
2023/08/31 06:11:22;;;;;;;7.32;2.40;;;;;;;14.26;82.18;92246.53;5009964;28;20061;-82
2023/08/31 06:13:48;;;;;;;5.25;2.00;;;;;;;14.47;79.42;92249.25;4998906;28;20407;-82
2023/08/31 06:16:13;;;;;;;6.03;2.30;;;;;;;15.14;80.25;92253.00;4997761;28;20034;-82
2023/08/31 06:18:39;;;;;;;4.60;2.03;;;;;;;16.19;76.85;92258.28;4988977;28;20033;-83
2023/08/31 06:21:05;;;;;;;7.85;2.25;;;;;;;16.79;75.79;92250.00;5000926;28;20034;-83
2023/08/31 06:23:30;;;;;;;5.13;1.85;;;;;;;17.25;73.55;92256.75;5016912;28;20125;-83
2023/08/31 06:25:56;;;;;;;5.05;2.17;;;;;;;17.94;66.83;92251.53;5008550;28;20510;-83
2023/08/31 06:28:21;;;;;;;4.95;2.10;;;;;;;18.53;61.72;92260.66;5018131;28;20041;-83
2023/08/31 06:30:47;;;;;;;5.22;1.85;;;;;;;18.88;60.46;92258.09;5001216;28;20384;-83
2023/08/31 06:33:14;;;;;;;2.92;1.65;;;;;;;18.84;60.34;92259.91;5001244;28;20036;-83
2023/08/31 06:35:40;;;;;;;5.97;2.10;;;;;;;18.27;62.24;92266.41;4980984;28;20101;-83
2023/08/31 06:38:05;;;;;;;8.27;1.90;;;;;;;18.20;64.85;92266.22;5005457;28;20058;-81
2023/08/31 06:40:31;;;;;;;7.88;1.90;;;;;;;18.07;65.84;92268.16;5009907;28;20030;-82
2023/08/31 06:42:57;;;;;;;7.70;2.10;;;;;;;17.86;67.69;92269.09;5016242;28;20022;-83
2023/08/31 06:45:22;;;;;;;3.63;1.65;;;;;;;17.67;66.50;92272.34;4983999;28;20046;-82
2023/08/31 06:47:48;;;;;;;4.50;2.00;;;;;;;17.33;70.95;92278.13;5008876;28;20546;-82
2023/08/31 06:50:14;;;;;;;4.47;1.80;;;;;;;17.96;68.53;92278.44;4997862;28;20485;-82
2023/08/31 06:52:41;;;;;;;5.45;2.10;;;;;;;17.99;66.60;92277.00;4999343;28;20514;-82
2023/08/31 06:55:07;;;;;;;4.47;1.73;;;;;;;18.63;66.66;92283.97;4998303;28;20036;-82
2023/08/31 06:57:32;;;;;;;10.25;2.78;;;;;;;19.65;61.15;92283.31;4998890;28;20106;-83
2023/08/31 06:59:58;;;;;;;6.13;2.05;;;;;;;20.54;61.53;92283.59;4980706;28;20444;-83
2023/08/31 07:02:26;;;;;;;3.97;1.80;;;;;;;20.87;59.68;92296.31;4981530;28;20054;-83
2023/08/31 07:04:52;;;;;;;6.43;2.10;;;;;;;21.33;59.81;92290.22;4998267;28;20092;-82
2023/08/31 07:07:18;;;;;;;8.98;2.85;;;;;;;21.73;58.67;92289.69;4965439;28;20038;-83
2023/08/31 07:09:46;;;;;;;5.32;1.95;;;;;;;21.40;58.03;92295.66;4981996;28;20539;-81
2023/08/31 07:12:11;;;;;;;4.18;1.70;;;;;;;20.89;61.23;92288.00;4981364;28;20050;-83
2023/08/31 07:14:38;;;;;;;5.15;2.25;;;;;;;19.96;61.17;92292.34;4985046;28;20049;-83
2023/08/31 07:17:04;;;;;;;3.58;1.80;;;;;;;19.36;60.65;92300.50;4975534;28;20026;-83
2023/08/31 07:19:29;;;;;;;5.75;1.90;;;;;;;18.99;62.17;92302.69;4997918;28;20034;-82
2023/08/31 07:21:55;;;;;;;4.30;1.88;;;;;;;18.30;65.21;92305.47;4998224;28;20034;-82
2023/08/31 07:24:21;;;;;;;3.33;1.70;;;;;;;18.47;65.33;92296.44;4997354;28;20045;-82
2023/08/31 07:26:47;;;;;;;3.72;1.98;;;;;;;18.86;65.50;92302.00;4997034;28;20034;-81
2023/08/31 07:29:13;;;;;;;4.18;2.00;;;;;;;19.20;63.26;92300.53;4979880;28;20044;-82
2023/08/31 07:31:38;;;;;;;4.85;1.80;;;;;;;19.20;62.84;92300.53;4980697;28;20451;-82
2023/08/31 07:34:04;;;;;;;4.57;2.30;;;;;;;18.87;65.72;92301.66;4997249;28;20034;-86
2023/08/31 07:36:30;;;;;;;8.90;2.13;;;;;;;18.71;65.65;92303.47;4997889;28;20034;-82
2023/08/31 07:38:56;;;;;;;5.00;1.92;;;;;;;18.97;65.51;92302.25;4998750;28;20096;-83
2023/08/31 07:41:22;;;;;;;5.15;2.03;;;;;;;18.76;63.94;92305.13;4979594;28;20033;-83
2023/08/31 07:43:49;;;;;;;3.38;1.70;;;;;;;18.84;63.89;92307.63;4980401;28;20046;-83
2023/08/31 07:46:15;;;;;;;5.07;1.80;;;;;;;18.93;66.41;92308.22;4996693;28;20037;-83
2023/08/31 07:48:41;;;;;;;3.97;2.00;;;;;;;19.29;63.95;92313.63;4981174;28;20058;-83
2023/08/31 07:51:07;;;;;;;3.08;1.63;;;;;;;19.36;62.82;92324.41;4979475;28;20030;-83
2023/08/31 07:53:33;;;;;;;5.07;1.67;;;;;;;19.27;63.90;92331.75;4989530;28;20049;-83
2023/08/31 07:55:59;;;;;;;3.78;1.80;;;;;;;19.08;66.98;92327.94;4997107;28;20026;-82
2023/08/31 07:58:27;;;;;;;3.85;2.00;;;;;;;18.85;66.38;92332.28;4979716;28;20058;-83
2023/08/31 08:00:54;;;;;;;4.88;1.83;;;;;;;18.63;66.95;92344.19;4994351;28;20419;-82
2023/08/31 08:03:20;;;;;;;4.43;1.70;;;;;;;18.51;67.04;92348.44;4958492;28;20054;-82
2023/08/31 08:05:46;;;;;;;5.05;1.88;;;;;;;18.44;67.57;92345.59;4973952;28;20038;-83
2023/08/31 08:08:12;;;;;;;4.20;1.77;;;;;;;18.45;67.21;92349.03;4991563;28;20061;-85
2023/08/31 08:10:37;;;;;;;4.75;1.88;;;;;;;18.49;68.69;92353.31;4954246;28;20038;-80
2023/08/31 08:13:04;;;;;;;4.72;2.00;;;;;;;18.66;70.69;92349.56;4983716;28;20082;-83
2023/08/31 08:15:30;;;;;;;3.55;1.70;;;;;;;18.55;69.74;92363.66;4970742;28;20027;-86
2023/08/31 08:17:57;;;;;;;4.80;1.88;;;;;;;18.95;68.74;92371.56;4977953;28;20102;-86
2023/08/31 08:20:23;;;;;;;3.35;1.75;;;;;;;18.85;65.47;92370.19;4979512;28;20056;-85
2023/08/31 08:22:52;;;;;;;3.28;1.70;;;;;;;18.95;67.38;92376.09;4963759;28;20038;-87
2023/08/31 08:25:19;;;;;;;4.65;1.92;;;;;;;18.55;68.47;92380.31;4964476;28;20038;-85
2023/08/31 08:27:45;;;;;;;6.00;2.00;;;;;;;18.31;68.51;92386.50;4978404;28;20049;-86
2023/08/31 08:30:10;;;;;;;5.78;2.17;;;;;;;18.16;69.94;92389.84;4996041;28;20030;-86
2023/08/31 08:32:36;;;;;;;3.90;1.80;;;;;;;18.08;69.85;92387.00;4978953;28;20046;-87
2023/08/31 08:35:02;;;;;;;3.92;1.70;;;;;;;18.16;67.41;92401.22;4978920;28;20022;-85
2023/08/31 08:37:29;;;;;;;3.55;1.80;;;;;;;18.40;68.77;92407.56;4946311;28;20053;-86
2023/08/31 08:39:55;;;;;;;3.20;1.67;;;;;;;18.41;71.43;92404.56;4965847;28;20054;-86
2023/08/31 08:42:24;;;;;;;6.47;1.70;;;;;;;18.64;72.46;92396.09;4994690;28;20042;-84
2023/08/31 08:44:50;;;;;;;5.90;1.55;;;;;;;18.63;72.93;92405.16;4974045;28;20381;-86
2023/08/31 08:47:19;;;;;;;4.43;1.70;;;;;;;18.70;74.62;92400.81;4960868;28;20082;-85
2023/08/31 08:49:47;;;;;;;3.42;1.73;;;;;;;18.78;74.81;92401.81;4990941;28;20046;-82
2023/08/31 08:52:14;;;;;;;4.03;2.00;;;;;;;19.08;75.89;92409.41;4952821;28;20049;-86
2023/08/31 08:54:40;;;;;;;3.92;1.80;;;;;;;19.34;75.57;92404.38;4976673;28;20084;-85
2023/08/31 08:57:05;;;;;;;4.57;1.80;;;;;;;19.26;64.74;92407.97;4979899;28;20028;-84
2023/08/31 08:59:32;;;;;;;4.20;2.00;;;;;;;19.49;65.92;92407.38;4955269;28;20049;-85
2023/08/31 09:01:57;;;;;;;3.75;1.60;;;;;;;19.41;70.44;92405.63;4938523;28;20484;-84
2023/08/31 09:04:23;;;;;;;3.70;1.70;;;;;;;19.47;71.55;92398.97;4973669;28;20116;-86
2023/08/31 09:06:51;;;;;;;4.72;1.75;;;;;;;19.48;72.39;92401.28;4966247;28;21564;-84
2023/08/31 09:09:16;;;;;;;3.88;1.60;;;;;;;19.45;67.86;92415.22;4957126;28;20030;-87
2023/08/31 09:11:42;;;;;;;3.92;1.75;;;;;;;19.39;69.67;92418.50;4955373;28;20043;-85
2023/08/31 09:14:20;;;;;;;3.20;1.75;;;;;;;19.40;64.69;92420.81;4962231;28;20499;-85
2023/08/31 09:16:48;;;;;;;3.75;1.77;;;;;;;19.55;67.70;92421.94;4959700;28;20130;-84
2023/08/31 09:19:24;;;;;;;5.13;2.00;;;;;;;19.43;66.70;92414.03;4984084;28;20054;-85
2023/08/31 09:21:51;;;;;;;6.50;1.85;;;;;;;19.52;66.95;92407.47;4968489;28;20046;-83
2023/08/31 09:24:18;;;;;;;3.15;1.60;;;;;;;19.61;64.11;92409.16;4988642;28;20026;-86
2023/08/31 09:26:46;;;;;;;3.78;1.85;;;;;;;19.61;66.42;92412.59;4967573;28;20039;-85
2023/08/31 09:29:12;;;;;;;6.35;1.80;;;;;;;19.70;68.51;92409.78;4973556;28;20038;-85
2023/08/31 09:31:37;;;;;;;5.25;1.80;;;;;;;19.65;67.26;92412.66;4977621;28;20299;-86
2023/08/31 09:34:03;;;;;;;4.57;1.90;;;;;;;19.68;68.01;92414.63;4946409;28;20397;-78
2023/08/31 09:36:29;;;;;;;3.75;1.80;;;;;;;19.67;67.15;92408.53;4967223;28;20077;-79
2023/08/31 09:38:58;;;;;;;4.57;1.90;;;;;;;19.59;68.37;92409.50;4977824;28;20027;-79
2023/08/31 09:41:24;;;;;;;3.78;1.67;;;;;;;19.59;68.54;92417.47;4974011;28;20425;-79
2023/08/31 09:43:50;;;;;;;4.95;1.60;;;;;;;19.31;70.52;92420.97;4978479;28;20019;-79
2023/08/31 09:46:16;;;;;;;3.75;1.85;;;;;;;19.55;70.75;92427.25;4978955;28;20051;-76
2023/08/31 09:48:43;;;;;;;5.18;1.75;;;;;;;19.61;69.25;92420.56;4959388;28;20050;-79
2023/08/31 09:51:14;;;;;;;4.90;1.90;;;;;;;19.61;70.46;92417.91;4976156;28;20066;-79
2023/08/31 09:53:41;;;;;;;5.45;1.85;;;;;;;19.67;69.31;92419.16;4974177;28;20035;-78
2023/08/31 09:56:10;;;;;;;3.28;1.65;;;;;;;20.00;68.95;92425.25;4962572;28;20444;-79
2023/08/31 09:58:36;;;;;;;4.60;2.00;;;;;;;20.24;67.36;92424.25;4985165;28;20034;-78
2023/08/31 10:01:02;;;;;;;4.00;1.80;;;;;;;20.49;65.03;92420.22;4947880;28;20049;-80
2023/08/31 10:03:28;;;;;;;4.65;1.80;;;;;;;20.50;63.72;92423.66;4984881;28;20034;-80
2023/08/31 10:05:54;;;;;;;4.15;1.75;;;;;;;20.30;60.79;92428.19;4987645;28;20468;-80
2023/08/31 10:08:20;;;;;;;5.85;1.90;;;;;;;20.37;63.97;92423.00;4985612;28;20039;-80
2023/08/31 10:10:46;;;;;;;3.30;1.73;;;;;;;20.45;61.95;92424.69;4962748;28;20035;-80
2023/08/31 10:13:12;;;;;;;3.80;1.80;;;;;;;20.55;58.47;92429.44;4971583;28;20030;-79
2023/08/31 10:15:37;;;;;;;3.25;1.45;;;;;;;20.48;59.52;92421.34;4977086;28;20400;-79
2023/08/31 10:18:04;;;;;;;4.07;1.67;;;;;;;20.34;58.59;92418.38;4987415;28;20058;-79
2023/08/31 10:20:31;;;;;;;5.13;2.00;;;;;;;20.26;61.42;92424.66;4975617;28;20039;-78
2023/08/31 10:23:05;;;;;;;3.83;1.90;;;;;;;20.34;61.35;92419.16;4970026;28;20473;-77
2023/08/31 10:25:46;;;;;;;3.55;1.80;;;;;;;20.48;61.40;92431.19;4988350;28;20460;-79
2023/08/31 10:28:38;;;;;;;3.78;1.50;;;;;;;20.44;64.10;92423.16;4974403;28;20086;-81
2023/08/31 10:31:05;;;;;;;;;;;;;;;20.61;62.04;92426.56;4977752;28;20039;-81
2023/08/31 10:33:44;;;;;;;3.40;1.75;;;;;;;20.66;61.46;92426.28;4978998;28;19918;-81
2023/08/31 10:36:19;;;;;;;4.35;1.90;;;;;;;20.52;59.93;92424.84;4986481;28;20073;-80
2023/08/31 10:38:55;;;;;;;3.53;1.80;;;;;;;20.57;58.41;92421.16;4982690;28;20073;-81
2023/08/31 10:41:22;;;;;;;4.47;1.90;;;;;;;20.36;57.94;92421.47;4995915;28;20088;-80
2023/08/31 10:43:51;;;;;;;4.25;1.80;;;;;;;20.45;56.11;92422.03;4948489;28;20046;-80
2023/08/31 10:46:33;;;;;;;5.72;1.80;;;;;;;20.47;54.63;92422.47;4985598;28;20035;-79
2023/08/31 10:49:13;;;;;;;3.65;1.85;;;;;;;20.87;55.17;92432.00;4988519;28;20109;-81
2023/08/31 10:51:44;;;;;;;3.30;1.88;;;;;;;20.89;51.98;92436.97;4983546;28;20040;-81
2023/08/31 10:54:10;;;;;;;5.87;1.70;;;;;;;20.89;52.97;92432.41;4973395;28;20059;-81
2023/08/31 10:56:57;;;;;;;3.50;1.80;;;;;;;20.97;52.44;92436.00;4992811;28;20065;-79
2023/08/31 10:59:24;;;;;;;4.22;2.15;;;;;;;21.13;52.64;92428.69;4994911;28;20089;-80
2023/08/31 11:01:56;;;;;;;4.03;2.20;;;;;;;21.04;54.25;92427.38;4993839;28;20026;-80
2023/08/31 11:04:24;;;;;;;3.30;1.65;;;;;;;21.20;55.19;92433.38;4979877;28;20042;-81
2023/08/31 11:07:15;;;;;;;3.20;1.77;;;;;;;21.02;55.13;92430.38;4997886;28;20038;-81
2023/08/31 11:09:41;;;;;;;3.95;2.08;;;;;;;21.06;56.78;92431.22;4996117;28;20030;-81
2023/08/31 11:12:07;;;;;;;4.43;1.92;;;;;;;20.75;56.76;92416.97;4991086;28;20034;-83
2023/08/31 11:14:33;;;;;;;3.50;1.75;;;;;;;20.76;57.89;92423.84;4995793;28;20046;-80
2023/08/31 11:17:00;;;;;;;3.60;1.80;;;;;;;20.85;59.10;92425.50;4994012;28;20102;-82
2023/08/31 11:19:28;;;;;;;4.10;1.95;;;;;;;20.78;55.23;92426.91;4997580;28;20052;-82
2023/08/31 11:21:54;;;;;;;3.40;1.98;;;;;;;20.52;56.88;92427.50;4983628;28;20030;-81
2023/08/31 11:24:21;;;;;;;3.22;1.73;;;;;;;20.66;58.28;92423.63;4982000;28;20046;-80
2023/08/31 11:26:50;;;;;;;3.33;1.80;;;;;;;20.72;55.13;92423.00;4999972;28;20062;-81
2023/08/31 11:29:16;;;;;;;4.35;1.95;;;;;;;20.79;56.62;92425.00;4982250;28;20373;-80
2023/08/31 11:31:42;;;;;;;5.00;1.80;;;;;;;20.79;57.46;92420.47;4982597;28;20065;-81
2023/08/31 11:34:12;;;;;;;3.50;1.83;;;;;;;20.55;56.04;92423.38;5000076;28;20409;-83